Search for airport 
image banner adimage banner ad
image banner ad

DGTK - Takoradi

Located in Takoradi, Ghana

ICAO - DGTK, IATA - TKD

Data provided by Airmate  

General information

Coordinates: N4°53'46" W1°46'29"
Elevation is 22 feet MSL.
 
Rated:
View ratings: [VIEW]


View others Airports in Western Region

Operational data

Open for public use
Current time UTC:
Current local time:
Weather
TAF: TAF DGTK 211000Z 2112/2218 23010KT 9999 SCT015 PROB30 TEMPO 2113/2117 7000 TSRA SCT011 FEW030CB BECMG 2123/2201 00000KT CAVOK TEMPO 2205/2207 4000 BR FEW010
View NOTAMs / SUP AIP / TFR affecting this airport [VIEW]
Communications frequencies: [VIEW]

Runways:

RWY identifierQFULength (ft)Width (ft)SurfaceLDA (ft)
0330°5745148
21210°5745148

Airport contact information

Address: Takoradi Ghana

Satellite view of DGTK